createdAt,value
2023-04-03T00:01:04.688Z,99700.41
2023-04-03T00:03:31.644Z,99697.78
2023-04-03T00:05:58.697Z,99702.16
2023-04-03T00:08:25.648Z,99708.13
2023-04-03T00:10:52.560Z,99711.50
2023-04-03T00:13:19.549Z,99711.56
2023-04-03T00:15:46.491Z,99703.94
2023-04-03T00:18:16.471Z,99696.34
2023-04-03T00:20:43.288Z,99648.16
2023-04-03T00:23:10.274Z,99704.16
2023-04-03T00:25:37.519Z,99711.00
2023-04-03T00:28:05.540Z,99710.25
2023-04-03T00:30:32.839Z,99654.28
2023-04-03T00:33:00.409Z,99696.66
2023-04-03T00:35:27.649Z,99700.91
2023-04-03T00:37:56.156Z,99701.81
2023-04-03T00:40:27.592Z,99707.75
2023-04-03T00:43:00.150Z,99698.59
2023-04-03T00:45:35.832Z,99701.09
2023-04-03T00:48:07.359Z,99703.69
2023-04-03T00:50:38.937Z,99694.34
2023-04-03T00:53:08.708Z,99701.19
2023-04-03T00:55:37.472Z,99706.28
2023-04-03T00:58:04.955Z,99698.69
2023-04-03T01:00:31.927Z,99714.06
2023-04-03T01:02:59.006Z,99695.38
2023-04-03T01:05:26.285Z,99705.53
2023-04-03T01:07:54.038Z,99711.66
2023-04-03T01:10:21.821Z,99708.19
2023-04-03T01:12:52.523Z,99705.69
2023-04-03T01:15:27.302Z,99700.63
2023-04-03T01:17:57.477Z,99704.81
2023-04-03T01:20:33.884Z,99709.22
2023-04-03T01:23:09.926Z,99707.59
2023-04-03T01:25:44.020Z,99698.25
2023-04-03T01:28:17.810Z,99705.81
2023-04-03T01:31:26.708Z,99711.91
2023-04-03T01:33:54.465Z,99706.84
2023-04-03T01:36:30.677Z,99708.59
2023-04-03T01:39:00.156Z,99700.94
2023-04-03T01:41:27.823Z,99706.06
2023-04-03T01:43:54.633Z,99709.44
2023-04-03T01:46:22.818Z,99692.41
2023-04-03T01:48:50.129Z,99710.22
2023-04-03T01:51:17.087Z,99705.97
2023-04-03T01:53:43.892Z,99701.72
2023-04-03T01:56:10.810Z,99698.38
2023-04-03T01:58:37.730Z,99703.44
2023-04-03T02:01:04.827Z,99709.44
2023-04-03T02:03:31.916Z,99704.28
2023-04-03T02:05:59.206Z,99706.06
2023-04-03T02:08:26.326Z,99657.81
2023-04-03T02:10:53.250Z,99694.19
2023-04-03T02:13:20.381Z,99706.97
2023-04-03T02:15:48.648Z,99700.25
2023-04-03T02:18:16.119Z,99705.38
2023-04-03T02:20:43.029Z,99705.34
2023-04-03T02:23:09.963Z,99713.84
2023-04-03T02:25:38.607Z,99712.16
2023-04-03T02:28:06.302Z,99704.59
2023-04-03T02:30:33.167Z,99718.22
2023-04-03T02:33:00.038Z,99709.72
2023-04-03T02:35:27.081Z,99694.47
2023-04-03T02:37:53.980Z,99715.69
2023-04-03T02:40:20.838Z,99710.53
2023-04-03T02:42:47.713Z,99704.50
2023-04-03T02:45:14.608Z,99707.13
2023-04-03T02:47:41.564Z,99701.19
2023-04-03T02:50:08.993Z,99708.69
2023-04-03T02:52:35.838Z,99699.47
2023-04-03T02:55:02.670Z,99700.22
2023-04-03T02:57:29.629Z,99712.13
2023-04-03T02:59:56.512Z,99712.13
2023-04-03T03:02:23.371Z,99700.25
2023-04-03T03:04:50.521Z,99714.66
2023-04-03T03:07:17.355Z,99665.47
2023-04-03T03:09:44.150Z,99708.69
2023-04-03T03:12:11.183Z,99711.22
2023-04-03T03:14:37.992Z,99718.03
2023-04-03T03:17:04.809Z,99713.78
2023-04-03T03:19:31.643Z,99694.13
2023-04-03T03:21:58.446Z,99708.59
2023-04-03T03:24:25.441Z,99705.31
2023-04-03T03:26:52.293Z,99702.66
2023-04-03T03:29:19.094Z,99699.28
2023-04-03T03:31:46.350Z,99706.84
2023-04-03T03:34:13.873Z,99709.44
2023-04-03T03:36:40.874Z,99706.88
2023-04-03T03:39:07.752Z,99705.97
2023-04-03T03:41:34.569Z,99709.44
2023-04-03T03:44:01.477Z,99702.66
2023-04-03T03:46:28.380Z,99710.22
2023-04-03T03:48:55.427Z,99701.78
2023-04-03T03:51:22.280Z,99681.41
2023-04-03T03:53:49.322Z,99702.63
2023-04-03T03:56:16.163Z,99676.44
2023-04-03T03:58:43.087Z,99715.38
2023-04-03T04:01:09.932Z,99709.50
2023-04-03T04:03:36.909Z,99711.13
2023-04-03T04:06:04.039Z,99704.34
2023-04-03T04:08:31.170Z,99715.44
2023-04-03T04:10:58.018Z,99721.44
2023-04-03T04:13:25.190Z,99705.31
2023-04-03T04:15:52.011Z,99702.75
2023-04-03T04:18:21.088Z,99714.59
2023-04-03T04:20:47.974Z,99717.09
2023-04-03T04:23:14.876Z,99704.47
2023-04-03T04:25:41.937Z,99717.19
2023-04-03T04:28:08.868Z,99705.31
2023-04-03T04:30:35.753Z,99720.69
2023-04-03T04:33:02.641Z,99706.97
2023-04-03T04:35:29.603Z,99709.50
2023-04-03T04:37:56.583Z,99693.34
2023-04-03T04:40:23.732Z,99708.63
2023-04-03T04:42:50.626Z,99703.53
2023-04-03T04:45:17.898Z,99707.66
2023-04-03T04:47:45.234Z,99694.91
2023-04-03T04:50:12.685Z,99711.13
2023-04-03T04:52:39.762Z,99716.28
2023-04-03T04:55:07.035Z,99713.66
2023-04-03T04:57:33.964Z,99712.84
2023-04-03T05:00:00.985Z,99729.13
2023-04-03T05:02:28.445Z,99718.88
2023-04-03T05:04:55.289Z,99717.97
2023-04-03T05:07:23.559Z,99722.25
2023-04-03T05:09:50.405Z,99726.50
2023-04-03T05:12:17.961Z,99721.53
2023-04-03T05:14:44.780Z,99693.63
2023-04-03T05:17:11.589Z,99704.59
2023-04-03T05:19:38.403Z,99731.75
2023-04-03T05:22:05.223Z,99733.38
2023-04-03T05:24:32.026Z,99736.81
2023-04-03T05:26:58.879Z,99730.16
2023-04-03T05:29:25.683Z,99737.03
2023-04-03T05:31:52.614Z,99733.78
2023-04-03T05:34:19.544Z,99749.13
2023-04-03T05:36:46.477Z,99741.41
2023-04-03T05:39:13.780Z,99747.28
2023-04-03T05:41:40.774Z,99745.56
2023-04-03T05:44:07.783Z,99738.75
2023-04-03T05:46:34.586Z,99744.75
2023-04-03T05:49:01.390Z,99746.44
2023-04-03T05:51:37.860Z,99717.72
2023-04-03T05:54:34.776Z,99751.63
2023-04-03T05:57:01.752Z,99755.25
2023-04-03T05:59:28.613Z,99735.84
2023-04-03T06:01:55.784Z,99759.72
2023-04-03T06:04:22.776Z,99757.94
2023-04-03T06:06:58.581Z,99757.88
2023-04-03T06:09:29.877Z,99766.47
2023-04-03T06:11:59.375Z,99764.72
2023-04-03T06:14:26.876Z,99771.53
2023-04-03T06:16:55.301Z,99758.97
2023-04-03T06:19:22.767Z,99765.63
2023-04-03T06:21:49.627Z,99765.78
2023-04-03T06:24:17.860Z,99772.50
2023-04-03T06:26:45.288Z,99773.34
2023-04-03T06:29:12.155Z,99754.63
2023-04-03T06:31:39.054Z,99760.56
2023-04-03T06:34:09.528Z,99770.84
2023-04-03T06:36:36.674Z,99772.47
2023-04-03T06:39:04.298Z,99771.56
2023-04-03T06:41:31.425Z,99781.88
2023-04-03T06:43:59.028Z,99780.25
2023-04-03T06:46:27.947Z,99774.94
2023-04-03T06:48:54.995Z,99780.91
2023-04-03T06:51:28.694Z,99787.69
2023-04-03T06:53:57.990Z,99782.63
2023-04-03T06:56:26.220Z,99782.50
2023-04-03T06:58:55.721Z,99788.44
2023-04-03T07:01:22.725Z,99778.28
2023-04-03T07:03:50.203Z,99777.47
2023-04-03T07:06:18.858Z,99789.34
2023-04-03T07:08:47.432Z,99796.13
2023-04-03T07:11:14.343Z,99785.75
2023-04-03T07:13:41.480Z,99794.34
2023-04-03T07:16:09.624Z,99787.44
2023-04-03T07:18:36.952Z,99795.00
2023-04-03T07:21:05.044Z,99801.94
2023-04-03T07:23:32.056Z,99784.28
2023-04-03T07:25:58.869Z,99794.28
2023-04-03T07:28:26.851Z,99800.16
2023-04-03T07:31:04.941Z,99796.78
2023-04-03T07:33:33.033Z,99802.81
2023-04-03T07:36:00.008Z,99793.41
2023-04-03T07:38:26.988Z,99792.66
2023-04-03T07:40:54.088Z,99795.88
2023-04-03T07:43:23.344Z,99800.13
2023-04-03T07:45:51.830Z,99788.25
2023-04-03T07:48:21.505Z,99801.69
2023-04-03T07:50:48.352Z,99806.97
2023-04-03T07:53:16.228Z,99805.31
2023-04-03T07:55:45.655Z,99808.69
2023-04-03T07:58:16.551Z,99812.13
2023-04-03T08:00:43.724Z,99803.56
2023-04-03T08:03:12.902Z,99811.09
2023-04-03T08:05:45.900Z,99806.69
2023-04-03T08:08:19.182Z,99809.19
2023-04-03T08:10:55.123Z,99803.19
2023-04-03T08:13:23.209Z,99809.13
2023-04-03T08:15:50.406Z,99808.16
2023-04-03T08:18:17.876Z,99814.97
2023-04-03T08:20:45.886Z,99814.84
2023-04-03T08:23:12.812Z,99815.72
2023-04-03T08:25:41.898Z,99822.69
2023-04-03T08:28:10.177Z,99820.06
2023-04-03T08:30:37.258Z,99812.19
2023-04-03T08:33:04.906Z,99819.91
2023-04-03T08:35:31.817Z,99817.44
2023-04-03T08:37:58.933Z,99819.97
2023-04-03T08:40:26.065Z,99810.59
2023-04-03T08:43:40.379Z,99821.69
2023-04-03T08:46:13.498Z,99822.56
2023-04-03T08:48:44.485Z,99818.34
2023-04-03T08:51:21.495Z,99817.31
2023-04-03T08:53:58.352Z,99813.06
2023-04-03T08:56:26.613Z,99813.91
2023-04-03T08:58:59.212Z,99817.28
2023-04-03T09:01:40.462Z,99817.22
2023-04-03T09:04:18.114Z,99832.53
2023-04-03T09:06:52.796Z,99817.88
2023-04-03T09:09:33.468Z,99825.44
2023-04-03T09:12:22.440Z,99826.81
2023-04-03T09:15:20.016Z,99831.75
2023-04-03T09:18:23.494Z,99836.84
2023-04-03T09:21:18.439Z,99829.09
2023-04-03T09:23:54.694Z,99815.38
2023-04-03T09:26:41.599Z,99815.53
2023-04-03T09:29:09.429Z,99822.25
2023-04-03T09:31:45.083Z,99824.00
2023-04-03T09:34:36.432Z,99823.94
2023-04-03T09:37:07.089Z,99824.75
2023-04-03T09:39:52.150Z,99813.69
2023-04-03T09:42:24.726Z,99824.66
2023-04-03T09:44:58.438Z,99815.06
2023-04-03T09:47:29.083Z,99821.03
2023-04-03T09:50:14.101Z,99825.44
2023-04-03T09:52:52.579Z,99821.66
2023-04-03T09:55:30.439Z,99814.72
2023-04-03T09:58:24.469Z,99826.25
2023-04-03T10:01:00.299Z,99825.44
2023-04-03T10:03:35.722Z,99821.44
2023-04-03T10:06:05.652Z,99824.50
2023-04-03T10:08:36.142Z,99815.75
2023-04-03T10:11:19.649Z,99811.63
2023-04-03T10:14:01.799Z,99805.69
2023-04-03T10:16:40.335Z,99821.19
2023-04-03T10:19:23.551Z,99819.66
2023-04-03T10:22:23.782Z,99820.97
2023-04-03T10:25:04.722Z,99824.50
2023-04-03T10:28:07.916Z,99819.25
2023-04-03T10:31:07.651Z,99820.91
2023-04-03T10:33:52.587Z,99821.81
2023-04-03T10:36:51.123Z,99819.91
2023-04-03T10:39:30.665Z,99810.59
2023-04-03T10:42:26.359Z,99815.50
2023-04-03T10:45:22.271Z,99819.81
2023-04-03T10:48:05.720Z,99815.59
2023-04-03T10:50:59.873Z,99819.81
2023-04-03T10:53:55.783Z,99787.72
2023-04-03T10:56:41.253Z,99815.50
2023-04-03T10:59:34.461Z,99818.91
2023-04-03T11:02:19.928Z,99813.81
2023-04-03T11:04:53.189Z,99809.56
2023-04-03T11:07:24.291Z,99812.09
2023-04-03T11:09:57.586Z,99806.94
2023-04-03T11:12:54.191Z,99811.63
2023-04-03T11:15:24.178Z,99809.66
2023-04-03T11:18:05.380Z,99783.47
2023-04-03T11:20:35.176Z,99800.97
2023-04-03T11:23:05.542Z,99802.88
2023-04-03T11:25:37.932Z,99798.66
2023-04-03T11:28:10.840Z,99791.06
2023-04-03T11:31:00.302Z,99793.22
2023-04-03T11:33:30.005Z,99794.94
2023-04-03T11:36:05.444Z,99800.00
2023-04-03T11:38:42.329Z,99798.38
2023-04-03T11:41:11.548Z,99790.69
2023-04-03T11:43:58.891Z,99788.03
2023-04-03T11:46:56.468Z,99771.94
2023-04-03T11:50:03.818Z,99765.13
2023-04-03T11:52:42.230Z,99781.91
2023-04-03T11:55:22.976Z,99787.88
2023-04-03T11:57:58.564Z,99781.72
2023-04-03T12:00:56.877Z,99773.97
2023-04-03T12:03:26.832Z,99772.94
2023-04-03T12:06:17.693Z,99768.06
2023-04-03T12:08:47.947Z,99763.97
2023-04-03T12:11:17.490Z,99772.47
2023-04-03T12:13:50.396Z,99759.31
2023-04-03T12:16:31.316Z,99765.50
2023-04-03T12:19:03.187Z,99771.88
2023-04-03T12:21:45.890Z,99764.69
2023-04-03T12:24:18.538Z,99760.53
2023-04-03T12:26:56.919Z,99760.53
2023-04-03T12:29:29.755Z,99750.91
2023-04-03T12:32:25.728Z,99748.13
2023-04-03T12:35:08.461Z,99747.97
2023-04-03T12:38:06.804Z,99740.22
2023-04-03T12:40:42.531Z,99756.69
2023-04-03T12:43:45.047Z,99751.63
2023-04-03T12:46:24.691Z,99748.88
2023-04-03T12:49:01.279Z,99715.66
2023-04-03T12:51:42.104Z,99737.63
2023-04-03T12:54:21.328Z,99737.53
2023-04-03T12:56:48.492Z,99750.19
2023-04-03T12:59:23.302Z,99735.66
2023-04-03T13:02:01.923Z,99730.59
2023-04-03T13:04:31.692Z,99713.16
2023-04-03T13:06:59.219Z,99718.09
2023-04-03T13:09:31.757Z,99727.59
2023-04-03T13:12:03.324Z,99725.19
2023-04-03T13:14:30.452Z,99723.44
2023-04-03T13:17:14.330Z,99727.53
2023-04-03T13:19:42.979Z,99723.06
2023-04-03T13:22:35.078Z,99725.53
2023-04-03T13:25:08.857Z,99726.66
2023-04-03T13:27:36.157Z,99722.25
2023-04-03T13:30:06.149Z,99730.78
2023-04-03T13:32:33.485Z,99732.53
2023-04-03T13:35:15.472Z,99706.91
2023-04-03T13:38:01.128Z,99728.13
2023-04-03T13:40:32.413Z,99726.56
2023-04-03T13:43:28.455Z,99720.19
2023-04-03T13:46:15.548Z,99719.59
2023-04-03T13:48:49.248Z,99715.41
2023-04-03T13:51:16.030Z,99716.09
2023-04-03T13:54:00.437Z,99722.09
2023-04-03T13:56:43.036Z,99713.34
2023-04-03T13:59:12.810Z,99717.00
2023-04-03T14:01:46.713Z,99725.69
2023-04-03T14:04:27.021Z,99721.06
2023-04-03T14:06:54.431Z,99720.00
2023-04-03T14:09:23.590Z,99722.50
2023-04-03T14:11:55.514Z,99680.13
2023-04-03T14:14:29.342Z,99712.16
2023-04-03T14:17:01.397Z,99715.50
2023-04-03T14:19:34.963Z,99706.25
2023-04-03T14:22:24.941Z,99713.88
2023-04-03T14:24:52.827Z,99707.31
2023-04-03T14:27:35.354Z,99709.84
2023-04-03T14:30:04.593Z,99704.78
2023-04-03T14:32:31.490Z,99684.00
2023-04-03T14:34:59.286Z,99684.97
2023-04-03T14:37:30.278Z,99705.16
2023-04-03T14:40:00.024Z,99694.94
2023-04-03T14:42:34.383Z,99697.56
2023-04-03T14:45:08.104Z,99694.00
2023-04-03T14:47:46.449Z,99694.66
2023-04-03T14:50:22.028Z,99697.78
2023-04-03T14:52:52.342Z,99695.28
2023-04-03T14:55:23.427Z,99682.63
2023-04-03T14:57:50.380Z,99682.41
2023-04-03T15:00:20.755Z,99676.31
2023-04-03T15:02:48.912Z,99690.38
2023-04-03T15:05:16.949Z,99694.13
2023-04-03T15:07:50.027Z,99687.50
2023-04-03T15:10:32.806Z,99688.31
2023-04-03T15:12:59.676Z,99693.25
2023-04-03T15:15:31.126Z,99676.25
2023-04-03T15:17:58.996Z,99691.38
2023-04-03T15:20:28.564Z,99698.22
2023-04-03T15:22:57.407Z,99697.22
2023-04-03T15:25:26.040Z,99690.38
2023-04-03T15:27:57.914Z,99682.91
2023-04-03T15:30:24.734Z,99693.03
2023-04-03T15:32:51.976Z,99673.59
2023-04-03T15:35:19.130Z,99675.44
2023-04-03T15:37:45.944Z,99686.31
2023-04-03T15:40:13.929Z,99684.91
2023-04-03T15:42:41.352Z,99688.47
2023-04-03T15:45:09.381Z,99675.44
2023-04-03T15:47:36.416Z,99685.84
2023-04-03T15:50:06.926Z,99689.19
2023-04-03T15:52:33.877Z,99677.22
2023-04-03T15:55:00.845Z,99679.00
2023-04-03T15:57:27.910Z,99693.25
2023-04-03T15:59:55.156Z,99687.88
2023-04-03T16:02:22.427Z,99689.47
2023-04-03T16:04:49.901Z,99689.59
2023-04-03T16:07:16.834Z,99677.69
2023-04-03T16:09:43.765Z,99681.06
2023-04-03T16:12:10.868Z,99687.97
2023-04-03T16:14:37.720Z,99654.06
2023-04-03T16:17:04.609Z,99677.63
2023-04-03T16:19:31.473Z,99681.78
2023-04-03T16:21:58.542Z,99688.09
2023-04-03T16:24:25.528Z,99676.25
2023-04-03T16:26:54.269Z,99685.97
2023-04-03T16:29:21.132Z,99666.59
2023-04-03T16:31:48.224Z,99696.13
2023-04-03T16:34:15.173Z,99692.56
2023-04-03T16:36:42.166Z,99695.66
2023-04-03T16:39:10.834Z,99695.56
2023-04-03T16:41:37.678Z,99684.63
2023-04-03T16:44:04.667Z,99681.81
2023-04-03T16:46:31.515Z,99704.84
2023-04-03T16:48:58.319Z,99700.66
2023-04-03T16:51:25.642Z,99664.91
2023-04-03T16:53:52.473Z,99696.34
2023-04-03T16:56:19.558Z,99697.66
2023-04-03T16:58:46.743Z,99703.69
2023-04-03T17:01:17.662Z,99703.94
2023-04-03T17:03:45.446Z,99703.94
2023-04-03T17:06:17.377Z,99702.22
2023-04-03T17:08:46.741Z,99710.88
2023-04-03T17:11:13.926Z,99707.66
2023-04-03T17:13:40.893Z,99705.22
2023-04-03T17:16:12.522Z,99702.44
2023-04-03T17:18:39.907Z,99703.31
2023-04-03T17:21:07.271Z,99705.06
2023-04-03T17:23:36.614Z,99708.53
2023-04-03T17:26:04.863Z,99700.09
2023-04-03T17:28:32.300Z,99704.34
2023-04-03T17:31:01.529Z,99700.03
2023-04-03T17:33:31.094Z,99705.22
2023-04-03T17:36:01.360Z,99700.19
2023-04-03T17:38:28.873Z,99706.31
2023-04-03T17:41:00.415Z,99690.13
2023-04-03T17:43:27.946Z,99690.13
2023-04-03T17:46:03.596Z,99693.66
2023-04-03T17:48:34.539Z,99694.53
2023-04-03T17:51:11.091Z,99684.97
2023-04-03T17:53:38.335Z,99697.84
2023-04-03T17:56:10.855Z,99705.78
2023-04-03T17:58:37.712Z,99701.50
2023-04-03T18:01:13.936Z,99698.91
2023-04-03T18:03:41.852Z,99700.88
2023-04-03T18:06:16.383Z,99697.69
2023-04-03T18:08:55.931Z,99705.41
2023-04-03T18:11:27.626Z,99698.06
2023-04-03T18:13:58.522Z,99702.44
2023-04-03T18:16:26.130Z,99702.44
2023-04-03T18:19:06.669Z,99706.72
2023-04-03T18:21:40.260Z,99701.56
2023-04-03T18:24:16.971Z,99706.94
2023-04-03T18:26:46.566Z,99694.53
2023-04-03T18:29:14.329Z,99715.16
2023-04-03T18:31:45.380Z,99711.81
2023-04-03T18:34:12.728Z,99717.78
2023-04-03T18:36:40.958Z,99714.19
2023-04-03T18:39:08.095Z,99726.25
2023-04-03T18:41:37.232Z,99724.53
2023-04-03T18:44:07.503Z,99728.28
2023-04-03T18:46:34.701Z,99724.16
2023-04-03T18:49:01.764Z,99729.28
2023-04-03T18:51:28.676Z,99727.69
2023-04-03T18:53:55.866Z,99725.94
2023-04-03T18:56:23.024Z,99720.97
2023-04-03T18:58:49.859Z,99714.31
2023-04-03T19:01:17.210Z,99716.19
2023-04-03T19:03:44.859Z,99737.34
2023-04-03T19:06:12.215Z,99730.53
2023-04-03T19:08:39.592Z,99731.47
2023-04-03T19:11:07.115Z,99731.72
2023-04-03T19:13:34.394Z,99724.31
2023-04-03T19:16:01.802Z,99714.88
2023-04-03T19:18:29.383Z,99729.34
2023-04-03T19:20:57.403Z,99729.34
2023-04-03T19:23:25.451Z,99722.44
2023-04-03T19:26:00.082Z,99730.91
2023-04-03T19:28:27.496Z,99739.47
2023-04-03T19:30:54.433Z,99735.34
2023-04-03T19:33:21.365Z,99727.56
2023-04-03T19:35:48.209Z,99746.59
2023-04-03T19:38:15.070Z,99735.41
2023-04-03T19:40:43.827Z,99721.63
2023-04-03T19:43:13.296Z,99731.00
2023-04-03T19:45:41.752Z,99738.03
2023-04-03T19:48:08.873Z,99737.22
2023-04-03T19:50:36.341Z,99734.78
2023-04-03T19:53:03.331Z,99732.38
2023-04-03T19:55:31.310Z,99727.31
2023-04-03T19:58:02.338Z,99723.16
2023-04-03T20:00:31.186Z,99737.66
2023-04-03T20:02:58.453Z,99745.13
2023-04-03T20:05:25.597Z,99729.75
2023-04-03T20:07:52.605Z,99736.50
2023-04-03T20:10:19.904Z,99727.91
2023-04-03T20:12:46.798Z,99734.88
2023-04-03T20:15:14.173Z,99736.66
2023-04-03T20:17:41.273Z,99732.25
2023-04-03T20:20:08.801Z,99744.47
2023-04-03T20:22:38.234Z,99730.97
2023-04-03T20:25:08.093Z,99737.81
2023-04-03T20:27:35.165Z,99741.28
2023-04-03T20:30:04.763Z,99742.97
2023-04-03T20:32:31.851Z,99735.31
2023-04-03T20:35:04.353Z,99743.84
2023-04-03T20:37:32.371Z,99749.91
2023-04-03T20:39:59.186Z,99721.06
2023-04-03T20:42:26.221Z,99732.78
2023-04-03T20:44:53.114Z,99742.19
2023-04-03T20:47:20.085Z,99736.28
2023-04-03T20:49:46.989Z,99742.25
2023-04-03T20:52:13.818Z,99733.81
2023-04-03T20:54:41.255Z,99745.78
2023-04-03T20:57:08.086Z,99741.72
2023-04-03T20:59:35.804Z,99746.88
2023-04-03T21:02:02.706Z,99719.88
2023-04-03T21:04:52.973Z,99747.13
2023-04-03T21:08:16.329Z,99746.34
2023-04-03T21:11:40.054Z,99749.94
2023-04-03T21:15:04.321Z,99750.13
2023-04-03T21:17:31.041Z,99745.81
2023-04-03T21:19:57.903Z,99743.41
2023-04-03T21:22:24.691Z,99746.84
2023-04-03T21:24:51.522Z,99747.75
2023-04-03T21:27:18.342Z,99742.63
2023-04-03T21:29:45.442Z,99747.06
2023-04-03T21:32:12.260Z,99746.06
2023-04-03T21:34:39.136Z,99711.34
2023-04-03T21:37:09.388Z,99744.56
2023-04-03T21:39:36.632Z,99736.81
2023-04-03T21:42:03.805Z,99723.34
2023-04-03T21:44:30.871Z,99745.53
2023-04-03T21:46:57.944Z,99742.25
2023-04-03T21:49:25.767Z,99741.44
2023-04-03T21:51:52.777Z,99719.56
2023-04-03T21:54:20.440Z,99738.31
2023-04-03T21:56:48.272Z,99746.06
2023-04-03T21:59:15.807Z,99750.38
2023-04-03T22:01:43.225Z,99739.25
2023-04-03T22:04:10.714Z,99742.72
2023-04-03T22:06:38.141Z,99734.31
2023-04-03T22:09:05.365Z,99748.00
2023-04-03T22:11:32.612Z,99743.03
2023-04-03T22:14:00.190Z,99733.69
2023-04-03T22:16:27.457Z,99741.31
2023-04-03T22:18:54.914Z,99750.75
2023-04-03T22:21:22.382Z,99733.03
2023-04-03T22:23:49.522Z,99754.25
2023-04-03T22:26:16.607Z,99739.97
2023-04-03T22:28:46.408Z,99753.50
2023-04-03T22:31:14.852Z,99751.03
2023-04-03T22:33:43.194Z,99746.84
2023-04-03T22:36:12.982Z,99754.63
2023-04-03T22:38:44.244Z,99739.31
2023-04-03T22:41:11.864Z,99739.34
2023-04-03T22:43:39.674Z,99747.03
2023-04-03T22:46:09.142Z,99756.53
2023-04-03T22:48:37.194Z,99754.94
2023-04-03T22:51:07.629Z,99756.66
2023-04-03T22:53:35.998Z,99754.16
2023-04-03T22:56:08.309Z,99757.72
2023-04-03T22:58:35.164Z,99751.84
2023-04-03T23:01:08.767Z,99762.88
2023-04-03T23:03:37.031Z,99759.53
2023-04-03T23:06:05.669Z,99759.56
2023-04-03T23:08:34.486Z,99770.66
2023-04-03T23:11:02.233Z,99767.28
2023-04-03T23:13:29.395Z,99760.53
2023-04-03T23:16:00.812Z,99753.03
2023-04-03T23:18:29.822Z,99761.44
2023-04-03T23:20:58.936Z,99769.25
2023-04-03T23:23:25.869Z,99777.91
2023-04-03T23:25:58.977Z,99776.16
2023-04-03T23:28:27.670Z,99771.06
2023-04-03T23:31:03.918Z,99776.22
2023-04-03T23:33:32.180Z,99783.13
2023-04-03T23:36:01.261Z,99773.75
2023-04-03T23:38:28.232Z,99772.94
2023-04-03T23:40:55.111Z,99770.44
2023-04-03T23:43:21.903Z,99772.09
2023-04-03T23:45:48.765Z,99765.34
2023-04-03T23:48:15.760Z,99767.06
2023-04-03T23:50:43.829Z,99767.97
2023-04-03T23:53:12.875Z,99770.47
2023-04-03T23:55:39.809Z,99772.22
2023-04-03T23:58:06.706Z,99762.78
